Time;durP1;ratioP1;P1;durP2;ratioP2;P2;SDS_P1;SDS_P2;PMS_P1;PMS_P2;Temp;Humidity;BMP_temperature;BMP_pressure;BME280_temperature;BME280_humidity;BME280_pressure;Samples;Min_cycle;Max_cycle;Signal;HPM_P1;HPM_P2
2021/10/23 00:01:50;0.00;0.00;0.62;0.00;0.00;0.62;1.80;1.00;;;23.40;28.80;;;;;;2270502;61;20356;-60
2021/10/23 00:04:36;0.00;0.00;0.62;0.00;0.00;0.62;1.93;1.27;;;23.50;29.40;;;;;;2270249;61;20359;-60
2021/10/23 00:07:20;0.00;0.00;0.62;0.00;0.00;0.62;2.20;1.20;;;23.50;28.80;;;;;;2269859;61;20407;-61
2021/10/23 00:10:06;0.00;0.00;0.62;0.00;0.00;0.62;2.77;1.20;;;23.50;28.90;;;;;;2270439;61;20372;-60
2021/10/23 00:12:50;0.00;0.00;0.62;0.00;0.00;0.62;2.73;1.57;;;23.50;28.90;;;;;;2269889;61;20420;-58
2021/10/23 00:15:35;0.00;0.00;0.62;0.00;0.00;0.62;2.80;1.30;;;23.50;28.90;;;;;;2270066;61;20356;-60
2021/10/23 00:18:20;0.00;0.00;0.62;0.00;0.00;0.62;2.77;1.90;;;23.40;28.80;;;;;;2270243;61;20731;-60
2021/10/23 00:21:06;0.00;0.00;0.62;0.00;0.00;0.62;2.13;1.20;;;23.50;28.90;;;;;;2269649;61;20356;-58
2021/10/23 00:23:50;0.00;0.00;0.62;0.00;0.00;0.62;2.20;1.17;;;23.50;28.90;;;;;;2270369;61;20380;-61
2021/10/23 00:26:35;0.00;0.00;0.62;0.00;0.00;0.62;2.47;1.37;;;23.50;28.90;;;;;;2270439;61;20409;-61
2021/10/23 00:29:19;0.00;0.00;0.62;0.00;0.00;0.62;1.50;0.90;;;23.50;28.90;;;;;;2269429;61;20383;-58
2021/10/23 00:32:04;0.00;0.00;0.62;0.00;0.00;0.62;1.67;1.27;;;23.40;28.80;;;;;;2270320;61;20593;-58
2021/10/23 00:34:49;0.00;0.00;0.62;0.00;0.00;0.62;2.33;1.00;;;23.50;28.90;;;;;;2269417;61;20364;-60
2021/10/23 00:37:35;0.00;0.00;0.62;0.00;0.00;0.62;2.67;1.40;;;23.40;28.80;;;;;;2269784;61;20398;-59
2021/10/23 00:40:20;0.00;0.00;0.62;0.00;0.00;0.62;2.53;1.00;;;23.40;28.80;;;;;;2270384;61;20715;-59
2021/10/23 00:43:04;0.00;0.00;0.62;0.00;0.00;0.62;3.40;1.43;;;23.50;28.90;;;;;;2269514;61;20681;-60
2021/10/23 00:45:49;0.00;0.00;0.62;0.00;0.00;0.62;3.03;1.50;;;23.50;28.90;;;;;;2270134;61;20349;-61
2021/10/23 00:48:33;0.00;0.00;0.62;0.00;0.00;0.62;2.07;1.00;;;23.40;28.90;;;;;;2270174;61;20368;-59
2021/10/23 00:51:18;0.00;0.00;0.62;0.00;0.00;0.62;1.93;0.90;;;23.40;28.90;;;;;;2269396;61;20418;-60
2021/10/23 00:54:04;0.00;0.00;0.62;0.00;0.00;0.62;2.17;1.00;;;23.50;28.90;;;;;;2270352;61;20573;-58
2021/10/23 00:56:49;0.00;0.00;0.62;0.00;0.00;0.62;2.40;1.23;;;23.50;28.90;;;;;;2269674;61;20371;-60
2021/10/23 00:59:35;0.00;0.00;0.62;0.00;0.00;0.62;2.03;1.17;;;23.40;28.80;;;;;;2269469;61;20376;-60
2021/10/23 01:02:19;0.00;0.00;0.62;0.00;0.00;0.62;2.47;1.47;;;23.40;28.80;;;;;;2270338;61;20357;-59
2021/10/23 01:05:07;0.00;0.00;0.62;0.00;0.00;0.62;2.33;1.43;;;23.40;28.80;;;;;;2269356;61;20400;-61
2021/10/23 01:07:52;0.00;0.00;0.62;0.00;0.00;0.62;2.10;1.20;;;23.40;28.70;;;;;;2269905;61;20359;-61
2021/10/23 01:10:38;0.00;0.00;0.62;0.00;0.00;0.62;3.10;1.47;;;23.40;28.70;;;;;;2270196;61;20419;-60
2021/10/23 01:13:22;0.00;0.00;0.62;0.00;0.00;0.62;2.10;1.20;;;23.40;28.60;;;;;;2269098;61;20360;-59
2021/10/23 01:16:07;0.00;0.00;0.62;0.00;0.00;0.62;4.47;1.47;;;23.40;28.50;;;;;;2270379;61;20398;-57
2021/10/23 01:18:51;0.00;0.00;0.62;0.00;0.00;0.62;3.33;1.50;;;23.40;28.30;;;;;;2269491;61;20379;-59
2021/10/23 01:21:38;0.00;0.00;0.62;0.00;0.00;0.62;3.50;1.43;;;23.30;28.00;;;;;;2269679;61;20340;-59
2021/10/23 01:24:23;0.00;0.00;0.62;0.00;0.00;0.62;4.87;1.97;;;23.30;27.90;;;;;;2270391;61;20668;-60
2021/10/23 01:27:08;0.00;0.00;0.62;0.00;0.00;0.62;3.03;1.60;;;23.30;27.80;;;;;;2269290;61;20359;-59
2021/10/23 01:29:52;0.00;0.00;0.62;0.00;0.00;0.62;4.87;1.93;;;23.20;27.70;;;;;;2269916;61;20758;-59
2021/10/23 01:32:38;0.00;0.00;0.62;0.00;0.00;0.62;3.47;1.10;;;23.10;27.50;;;;;;2270137;61;20396;-60
2021/10/23 01:35:23;0.00;0.00;0.62;0.00;0.00;0.62;3.10;1.80;;;23.10;27.50;;;;;;2268978;61;20758;-58
2021/10/23 01:38:09;0.00;0.00;0.62;0.00;0.00;0.62;4.80;1.93;;;23.10;27.40;;;;;;2270198;61;20356;-60
2021/10/23 01:40:55;0.00;0.00;0.62;0.00;0.00;0.62;3.27;1.40;;;23.00;27.40;;;;;;2269878;61;20444;-58
2021/10/23 01:43:40;0.00;0.00;0.62;0.00;0.00;0.62;6.13;2.30;;;23.00;27.30;;;;;;2269633;61;20395;-58
2021/10/23 01:46:26;0.00;0.00;0.62;0.00;0.00;0.62;3.77;1.30;;;22.90;27.30;;;;;;2270218;61;20716;-57
2021/10/23 01:49:11;0.00;0.00;0.62;0.00;0.00;0.62;3.63;1.90;;;22.90;27.30;;;;;;2269150;61;20388;-57
2021/10/23 01:51:55;0.00;0.00;0.62;0.00;0.00;0.62;3.23;1.50;;;22.80;27.20;;;;;;2269902;61;20388;-57
2021/10/23 01:54:42;0.00;0.00;0.62;0.00;0.00;0.62;4.10;1.70;;;22.80;27.20;;;;;;2270237;61;20356;-57
2021/10/23 01:57:27;0.00;0.00;0.62;0.00;0.00;0.62;3.40;1.57;;;22.70;27.20;;;;;;2268937;61;20479;-57
2021/10/23 02:00:14;0.00;0.00;0.62;0.00;0.00;0.62;2.70;1.43;;;22.70;27.20;;;;;;2270266;61;20418;-59
2021/10/23 02:02:59;0.00;0.00;0.62;0.00;0.00;0.62;3.13;1.50;;;22.60;27.10;;;;;;2269980;61;20352;-59
2021/10/23 02:05:43;0.00;0.00;0.62;0.00;0.00;0.62;3.47;1.70;;;22.60;27.20;;;;;;2269631;61;20407;-59
2021/10/23 02:08:28;0.00;0.00;0.62;0.00;0.00;0.62;4.23;1.60;;;22.60;27.30;;;;;;2269902;61;20359;-58
2021/10/23 02:11:14;0.00;0.00;0.62;0.00;0.00;0.62;4.90;1.90;;;22.60;27.30;;;;;;2269222;61;20461;-59
2021/10/23 02:13:59;0.00;0.00;0.62;0.00;0.00;0.62;3.20;1.80;;;22.50;27.20;;;;;;2269762;61;20360;-58
2021/10/23 02:16:43;0.00;0.00;0.62;0.00;0.00;0.62;5.63;1.17;;;22.50;27.20;;;;;;2269532;61;20576;-59
2021/10/23 02:19:28;0.00;0.00;0.62;0.00;0.00;0.62;2.80;1.23;;;22.50;27.20;;;;;;2269143;61;20380;-58
2021/10/23 02:22:12;0.00;0.00;0.62;0.00;0.00;0.62;4.57;1.33;;;22.50;27.20;;;;;;2270014;61;20372;-58
2021/10/23 02:24:57;0.00;0.00;0.62;0.00;0.00;0.62;4.97;1.70;;;22.40;27.10;;;;;;2270056;61;20379;-58
2021/10/23 02:27:43;0.00;0.00;0.62;0.00;0.00;0.62;3.00;1.10;;;22.40;27.20;;;;;;2269049;61;20480;-58
2021/10/23 02:30:27;0.00;0.00;0.62;0.00;0.00;0.62;3.77;1.50;;;22.40;27.20;;;;;;2269838;61;20384;-58
2021/10/23 02:33:12;0.00;0.00;0.62;0.00;0.00;0.62;5.17;1.90;;;22.40;27.20;;;;;;2269404;61;20816;-58
2021/10/23 02:35:56;0.00;0.00;0.62;0.00;0.00;0.62;3.67;1.90;;;22.40;27.20;;;;;;2269530;61;20360;-58
2021/10/23 02:38:41;0.00;0.00;0.62;0.00;0.00;0.62;3.33;1.20;;;22.40;27.20;;;;;;2269788;61;20681;-61
2021/10/23 02:41:27;0.00;0.00;0.62;0.00;0.00;0.62;5.87;2.07;;;22.40;27.20;;;;;;2269217;61;20427;-59
2021/10/23 02:44:13;0.00;0.00;0.62;0.00;0.00;0.62;3.87;1.70;;;22.30;27.10;;;;;;2269774;61;20364;-58
2021/10/23 02:46:57;0.00;0.00;0.62;0.00;0.00;0.62;2.63;1.50;;;22.30;27.10;;;;;;2269901;61;20368;-59
2021/10/23 02:49:42;0.00;0.00;0.62;0.00;0.00;0.62;3.70;1.70;;;22.30;27.10;;;;;;2269003;61;20376;-59
2021/10/23 02:52:27;0.00;0.00;0.62;0.00;0.00;0.62;1.83;1.27;;;22.30;27.10;;;;;;2269849;61;20426;-59
2021/10/23 02:55:12;0.00;0.00;0.62;0.00;0.00;0.62;5.80;1.53;;;22.20;27.00;;;;;;2269288;61;20395;-57
2021/10/23 02:57:57;0.00;0.00;0.62;0.00;0.00;0.62;4.93;2.07;;;22.20;27.00;;;;;;2269285;61;20355;-59
2021/10/23 03:00:43;0.00;0.00;0.62;0.00;0.00;0.62;7.63;1.53;;;22.10;26.80;;;;;;2269907;61;20379;-57
2021/10/23 03:03:27;0.00;0.00;0.62;0.00;0.00;0.62;7.40;2.20;;;22.10;26.90;;;;;;2269048;61;20610;-59
2021/10/23 03:06:12;0.00;0.00;0.62;0.00;0.00;0.62;5.13;2.13;;;22.10;26.90;;;;;;2269644;61;20364;-57
2021/10/23 03:08:57;0.00;0.00;0.62;0.00;0.00;0.62;6.80;2.00;;;22.10;27.00;;;;;;2269892;61;20434;-60
2021/10/23 03:11:42;0.00;0.00;0.62;0.00;0.00;0.62;3.33;1.57;;;22.00;26.90;;;;;;2268695;61;21028;-59
2021/10/23 03:14:27;0.00;0.00;0.62;0.00;0.00;0.62;4.93;1.63;;;22.00;26.90;;;;;;2269834;61;20364;-58
2021/10/23 03:17:13;0.00;0.00;0.62;0.00;0.00;0.62;3.93;1.40;;;22.00;27.00;;;;;;2269533;61;20383;-58
2021/10/23 03:19:58;0.00;0.00;0.62;0.00;0.00;0.62;3.87;1.90;;;21.90;27.00;;;;;;2269285;61;20384;-58
2021/10/23 03:22:43;0.00;0.00;0.62;0.00;0.00;0.62;5.50;1.53;;;21.90;27.00;;;;;;2270520;61;20351;-59
2021/10/23 03:25:27;0.00;0.00;0.62;0.00;0.00;0.62;4.37;1.50;;;21.90;27.00;;;;;;2269703;61;20392;-57
2021/10/23 03:28:12;0.00;0.00;0.62;0.00;0.00;0.62;3.20;1.37;;;21.80;27.00;;;;;;2270114;61;20360;-58
2021/10/23 03:30:57;0.00;0.00;0.62;0.00;0.00;0.62;7.00;2.30;;;21.80;27.10;;;;;;2270624;61;20425;-58
2021/10/23 03:33:43;0.00;0.00;0.62;0.00;0.00;0.62;2.80;1.50;;;21.80;27.10;;;;;;2269196;61;20364;-59
2021/10/23 03:36:27;0.00;0.00;0.62;0.00;0.00;0.62;3.47;1.80;;;21.70;27.00;;;;;;2270556;61;20367;-58
2021/10/23 03:39:12;0.00;0.00;0.62;0.00;0.00;0.62;3.73;1.40;;;21.70;27.10;;;;;;2270234;61;20407;-56
2021/10/23 03:41:57;0.00;0.00;0.62;0.00;0.00;0.62;5.43;1.40;;;21.70;27.20;;;;;;2269948;61;20410;-58
2021/10/23 03:44:42;0.00;0.00;0.62;0.00;0.00;0.62;2.73;1.70;;;21.70;27.20;;;;;;2270634;61;20374;-57
2021/10/23 03:47:28;0.00;0.00;0.62;0.00;0.00;0.62;3.17;1.23;;;21.70;27.20;;;;;;2269596;61;20586;-58
2021/10/23 03:50:14;0.00;0.00;0.62;0.00;0.00;0.62;4.67;1.47;;;21.70;27.20;;;;;;2270128;61;20375;-58
2021/10/23 03:53:00;0.00;0.00;0.62;0.00;0.00;0.62;5.00;2.10;;;21.70;27.20;;;;;;2270636;61;20351;-57
2021/10/23 03:55:44;0.00;0.00;0.62;0.00;0.00;0.62;3.17;1.53;;;21.70;27.20;;;;;;2269413;61;20367;-56
2021/10/23 03:58:29;0.00;0.00;0.62;0.00;0.00;0.62;3.63;1.67;;;21.70;27.20;;;;;;2270448;61;20391;-58
2021/10/23 04:01:13;0.00;0.00;0.62;0.00;0.00;0.62;4.60;1.47;;;21.60;27.20;;;;;;2270353;61;20406;-57
2021/10/23 04:03:58;0.00;0.00;0.62;0.00;0.00;0.62;3.77;1.77;;;21.60;27.20;;;;;;2269530;61;20360;-59
2021/10/23 04:06:43;0.00;0.00;0.62;0.00;0.00;0.62;4.07;1.80;;;21.60;27.20;;;;;;2270585;61;20556;-57
2021/10/23 04:09:28;0.00;0.00;0.62;0.00;0.00;0.62;4.23;2.13;;;21.60;27.10;;;;;;2269593;61;20744;-58
2021/10/23 04:12:13;0.00;0.00;0.62;0.00;0.00;0.62;5.37;1.77;;;21.50;27.10;;;;;;2270037;61;20411;-59
2021/10/23 04:14:59;0.00;0.00;0.62;0.00;0.00;0.62;5.20;2.07;;;21.50;27.10;;;;;;2270417;61;20356;-60
2021/10/23 04:17:44;0.00;0.00;0.62;0.00;0.00;0.62;3.87;1.93;;;21.50;27.10;;;;;;2269363;61;20357;-58
2021/10/23 04:20:29;0.00;0.00;0.62;0.00;0.00;0.62;3.90;1.70;;;21.50;27.20;;;;;;2270423;61;20491;-58
2021/10/23 04:23:15;0.00;0.00;0.62;0.00;0.00;0.62;2.90;1.13;;;21.50;27.20;;;;;;2270383;61;20732;-59
2021/10/23 04:25:59;0.00;0.00;0.62;0.00;0.00;0.62;3.10;1.27;;;21.50;27.20;;;;;;2269500;61;20487;-59
2021/10/23 04:28:44;0.00;0.00;0.62;0.00;0.00;0.62;3.10;1.13;;;21.40;27.20;;;;;;2270203;61;20442;-58
2021/10/23 04:31:28;0.00;0.00;0.62;0.00;0.00;0.62;1.53;1.13;;;21.40;27.20;;;;;;2269725;61;20403;-58
2021/10/23 04:34:13;0.00;0.00;0.62;0.00;0.00;0.62;3.70;1.70;;;21.40;27.20;;;;;;2269714;61;20376;-58
2021/10/23 04:36:58;0.00;0.00;0.62;0.00;0.00;0.62;3.23;1.60;;;21.50;27.30;;;;;;2270295;61;20646;-60
2021/10/23 04:39:43;0.00;0.00;0.62;0.00;0.00;0.62;2.43;1.37;;;21.40;27.30;;;;;;2269447;61;20616;-59
2021/10/23 04:42:28;0.00;0.00;0.62;0.00;0.00;0.62;2.23;1.30;;;21.40;27.30;;;;;;2270069;61;20364;-60
2021/10/23 04:45:13;0.00;0.00;0.62;0.00;0.00;0.62;3.33;1.70;;;21.40;27.20;;;;;;2270418;61;20360;-59
2021/10/23 04:47:59;0.00;0.00;0.62;0.00;0.00;0.62;2.90;1.50;;;21.40;27.20;;;;;;2269075;61;20371;-59
2021/10/23 04:50:43;0.00;0.00;0.62;0.00;0.00;0.62;3.10;1.40;;;21.40;27.20;;;;;;2270245;61;20380;-58
2021/10/23 04:53:28;0.00;0.00;0.62;0.00;0.00;0.62;3.50;1.67;;;21.40;27.20;;;;;;2269699;61;20363;-57
2021/10/23 04:56:13;0.00;0.00;0.62;0.00;0.00;0.62;2.30;1.40;;;21.40;27.20;;;;;;2269724;61;20364;-59
2021/10/23 04:58:58;0.00;0.00;0.62;0.00;0.00;0.62;3.57;1.60;;;21.40;27.20;;;;;;2269796;61;20454;-60
2021/10/23 05:01:43;0.00;0.00;0.62;0.00;0.00;0.62;5.00;1.70;;;21.40;27.20;;;;;;2269408;61;20575;-59
2021/10/23 05:04:28;0.00;0.00;0.62;0.00;0.00;0.62;6.37;1.63;;;21.40;27.20;;;;;;2269976;61;20402;-59
2021/10/23 05:07:13;0.00;0.00;0.62;0.00;0.00;0.62;5.67;1.80;;;21.40;27.10;;;;;;2270296;61;20400;-60
2021/10/23 05:09:58;0.00;0.00;0.62;0.00;0.00;0.62;3.80;1.40;;;21.30;27.00;;;;;;2269085;61;20430;-59
2021/10/23 05:12:43;0.00;0.00;0.62;0.00;0.00;0.62;3.73;1.50;;;21.30;27.10;;;;;;2270146;61;20388;-56
2021/10/23 05:15:28;0.00;0.00;0.62;0.00;0.00;0.62;3.40;1.40;;;21.30;27.10;;;;;;2270085;61;20384;-60
2021/10/23 05:18:12;0.00;0.00;0.62;0.00;0.00;0.62;4.47;1.50;;;21.30;27.10;;;;;;2269611;61;20555;-56
2021/10/23 05:20:57;0.00;0.00;0.62;0.00;0.00;0.62;2.63;1.13;;;21.30;27.10;;;;;;2270273;61;20441;-58
2021/10/23 05:23:41;0.00;0.00;0.62;0.00;0.00;0.62;2.53;1.60;;;21.30;27.10;;;;;;2269576;61;20355;-59
2021/10/23 05:26:26;0.00;0.00;0.62;0.00;0.00;0.62;3.33;1.20;;;21.20;27.00;;;;;;2269491;61;20464;-59
2021/10/23 05:29:12;0.00;0.00;0.62;0.00;0.00;0.62;2.60;1.27;;;21.20;27.10;;;;;;2270104;61;20490;-59
2021/10/23 05:31:56;0.00;0.00;0.62;0.00;0.00;0.62;1.73;1.10;;;21.20;27.10;;;;;;2268899;61;20779;-58
2021/10/23 05:34:41;0.00;0.00;0.62;0.00;0.00;0.62;4.33;1.50;;;21.20;27.10;;;;;;2270149;61;20716;-59
2021/10/23 05:37:25;0.00;0.00;0.62;0.00;0.00;0.62;3.10;1.43;;;21.20;27.10;;;;;;2269571;61;20402;-58
2021/10/23 05:40:11;0.00;0.00;0.62;0.00;0.00;0.62;3.63;1.63;;;21.20;27.10;;;;;;2268735;61;20793;-57
2021/10/23 05:42:56;0.00;0.00;0.62;0.00;0.00;0.62;2.10;1.13;;;21.20;27.20;;;;;;2270121;61;20743;-57
2021/10/23 05:45:42;0.00;0.00;0.62;0.00;0.00;0.62;4.27;1.40;;;21.20;27.20;;;;;;2269593;61;20712;-58
2021/10/23 05:48:27;0.00;0.00;0.62;0.00;0.00;0.62;3.40;1.30;;;21.20;27.20;;;;;;2269494;61;20600;-58
2021/10/23 05:51:11;0.00;0.00;0.62;0.00;0.00;0.62;2.10;1.37;;;21.10;27.10;;;;;;2270159;61;20463;-59
2021/10/23 05:53:56;0.00;0.00;0.62;0.00;0.00;0.62;2.67;1.23;;;21.10;27.20;;;;;;2269200;61;20647;-59
2021/10/23 05:56:40;0.00;0.00;0.62;0.00;0.00;0.62;3.60;1.23;;;21.10;27.20;;;;;;2269985;61;20356;-58
2021/10/23 05:59:25;0.00;0.00;0.62;0.00;0.00;0.62;2.40;1.20;;;21.10;27.20;;;;;;2270075;61;20649;-60
2021/10/23 06:02:22;0.00;0.00;0.62;0.00;0.00;0.62;3.20;1.30;;;21.10;27.20;;;;;;2269120;61;20437;-60
2021/10/23 06:05:08;0.00;0.00;0.62;0.00;0.00;0.62;3.37;1.33;;;21.10;27.20;;;;;;2270187;61;20367;-59
2021/10/23 06:07:53;0.00;0.00;0.62;0.00;0.00;0.62;2.57;1.20;;;21.10;27.30;;;;;;2269393;61;20405;-58
2021/10/23 06:10:38;0.00;0.00;0.62;0.00;0.00;0.62;4.97;1.67;;;21.10;27.30;;;;;;2269621;61;20376;-58
2021/10/23 06:13:23;0.00;0.00;0.62;0.00;0.00;0.62;2.80;0.90;;;21.00;27.20;;;;;;2270000;61;20384;-60
2021/10/23 06:16:07;0.00;0.00;0.62;0.00;0.00;0.62;2.90;1.10;;;21.00;27.30;;;;;;2269120;61;20364;-59
2021/10/23 06:18:53;0.00;0.00;0.62;0.00;0.00;0.62;3.37;1.80;;;21.00;27.30;;;;;;2269833;61;20379;-59
2021/10/23 06:21:38;0.00;0.00;0.62;0.00;0.00;0.62;2.53;1.40;;;21.00;27.30;;;;;;2270067;61;20423;-59
2021/10/23 06:24:22;0.00;0.00;0.62;0.00;0.00;0.62;3.40;1.37;;;21.00;27.30;;;;;;2268989;61;20391;-59
2021/10/23 06:27:07;0.00;0.00;0.62;0.00;0.00;0.62;4.20;1.40;;;21.00;27.30;;;;;;2269444;61;20391;-59
2021/10/23 06:29:52;0.00;0.00;0.62;0.00;0.00;0.62;2.93;1.43;;;21.00;27.30;;;;;;2269023;61;20607;-59
2021/10/23 06:32:44;0.00;0.00;0.62;0.00;0.00;0.62;4.43;1.50;;;21.00;27.30;;;;;;2269645;61;20772;-60
2021/10/23 06:35:31;0.00;0.00;0.62;0.00;0.00;0.62;3.10;1.40;;;21.00;27.30;;;;;;2270090;61;20360;-59
2021/10/23 06:38:15;0.00;0.00;0.62;0.00;0.00;0.62;4.27;1.70;;;21.00;27.30;;;;;;2269248;61;20375;-60
2021/10/23 06:41:00;0.00;0.00;0.62;0.00;0.00;0.62;3.00;1.50;;;21.00;27.30;;;;;;2269839;61;20360;-59
2021/10/23 06:43:44;0.00;0.00;0.62;0.00;0.00;0.62;3.20;1.33;;;21.00;27.30;;;;;;2270081;61;20360;-59
2021/10/23 06:46:30;0.00;0.00;0.62;0.00;0.00;0.62;4.30;2.03;;;21.00;27.30;;;;;;2269306;61;20407;-61
2021/10/23 06:49:15;0.00;0.00;0.62;0.00;0.00;0.62;3.60;1.77;;;21.00;27.30;;;;;;2269935;61;20606;-60
2021/10/23 06:52:02;0.00;0.00;0.62;0.00;0.00;0.62;7.60;1.80;;;21.00;27.30;;;;;;2269282;61;20379;-60
2021/10/23 06:54:48;0.00;0.00;0.62;0.00;0.00;0.62;4.23;1.87;;;20.90;27.20;;;;;;2269850;61;20367;-58
2021/10/23 06:57:33;0.00;0.00;0.62;0.00;0.00;0.62;3.47;1.70;;;20.90;27.20;;;;;;2269814;61;20399;-60
2021/10/23 07:00:18;0.00;0.00;0.62;0.00;0.00;0.62;3.73;1.40;;;20.90;27.20;;;;;;2269397;61;20372;-59
2021/10/23 07:03:02;0.00;0.00;0.62;0.00;0.00;0.62;4.17;1.47;;;20.90;27.20;;;;;;2269674;61;20375;-60
2021/10/23 07:05:47;0.00;0.00;0.62;0.00;0.00;0.62;2.90;1.50;;;20.80;27.20;;;;;;2269999;61;20731;-60
2021/10/23 07:08:33;0.00;0.00;0.62;0.00;0.00;0.62;3.77;1.90;;;20.80;27.20;;;;;;2268903;61;20591;-59
2021/10/23 07:11:18;0.00;0.00;0.62;0.00;0.00;0.62;4.60;1.87;;;20.80;27.20;;;;;;2270019;61;20383;-61
2021/10/23 07:14:02;0.00;0.00;0.62;0.00;0.00;0.62;3.40;1.60;;;20.80;27.20;;;;;;2269279;61;20762;-60
2021/10/23 07:16:47;0.00;0.00;0.62;0.00;0.00;0.62;5.10;1.77;;;20.80;27.20;;;;;;2269578;61;20360;-61
2021/10/23 07:19:32;0.00;0.00;0.62;0.00;0.00;0.62;2.90;1.43;;;20.80;27.20;;;;;;2269819;61;20400;-60
2021/10/23 07:22:17;0.00;0.00;0.62;0.00;0.00;0.62;3.80;1.60;;;20.70;27.10;;;;;;2268905;61;20355;-60
2021/10/23 07:25:05;0.00;0.00;0.62;0.00;0.00;0.62;4.63;1.80;;;20.80;27.20;;;;;;2269784;61;20414;-60
2021/10/23 07:27:50;0.00;0.00;0.62;0.00;0.00;0.62;3.93;1.30;;;20.70;27.10;;;;;;2269777;61;20360;-59
2021/10/23 07:30:34;0.00;0.00;0.62;0.00;0.00;0.62;4.80;1.70;;;20.70;27.10;;;;;;2268967;61;20402;-59
2021/10/23 07:33:19;0.00;0.00;0.62;0.00;0.00;0.62;3.60;1.40;;;20.70;27.20;;;;;;2269914;61;20410;-59
2021/10/23 07:36:04;0.00;0.00;0.62;0.00;0.00;0.62;4.30;1.93;;;20.80;27.30;;;;;;2269710;61;20356;-61
2021/10/23 07:38:49;0.00;0.00;0.62;0.00;0.00;0.62;5.50;2.00;;;20.80;27.30;;;;;;2269380;61;20383;-60
2021/10/23 07:41:35;0.00;0.00;0.62;0.00;0.00;0.62;2.07;1.50;;;20.70;27.20;;;;;;2269873;61;20379;-59
2021/10/23 07:44:20;0.00;0.00;0.62;0.00;0.00;0.62;4.93;1.57;;;20.70;27.20;;;;;;2269274;61;20368;-59
2021/10/23 07:47:05;0.00;0.00;0.62;0.00;0.00;0.62;4.10;2.20;;;20.80;27.40;;;;;;2269424;61;20375;-57
2021/10/23 07:49:49;0.00;0.00;0.62;0.00;0.00;0.62;3.97;2.00;;;20.70;27.30;;;;;;2269809;61;20414;-56
2021/10/23 07:52:35;0.00;0.00;0.62;0.00;0.00;0.62;2.03;1.00;;;20.70;27.30;;;;;;2269177;61;20462;-57
2021/10/23 07:55:20;0.00;0.00;0.62;0.00;0.00;0.62;3.40;1.97;;;20.80;27.30;;;;;;2269711;61;20439;-56
2021/10/23 07:58:06;0.00;0.00;0.62;0.00;0.00;0.62;5.83;1.80;;;20.80;27.20;;;;;;2269629;61;20379;-56
2021/10/23 08:00:51;0.00;0.00;0.62;0.00;0.00;0.62;3.70;1.60;;;20.80;27.20;;;;;;2269316;61;20483;-61
2021/10/23 08:03:35;0.00;0.00;0.62;0.00;0.00;0.62;3.80;1.67;;;20.80;27.20;;;;;;2269816;61;20400;-61
2021/10/23 08:06:20;0.00;0.00;0.62;0.00;0.00;0.62;4.50;1.63;;;20.80;27.20;;;;;;2269186;61;20364;-60
2021/10/23 08:09:11;0.00;0.00;0.62;0.00;0.00;0.62;2.57;1.50;;;20.80;27.20;;;;;;2269724;61;20430;-60
2021/10/23 08:11:56;0.00;0.00;0.62;0.00;0.00;0.62;5.50;1.70;;;20.80;27.40;;;;;;2270506;61;20371;-61
2021/10/23 08:14:42;0.00;0.00;0.62;0.00;0.00;0.62;6.87;2.20;;;20.80;27.40;;;;;;2269914;61;20720;-60
2021/10/23 08:17:26;0.00;0.00;0.62;0.00;0.00;0.62;6.23;1.70;;;20.80;27.50;;;;;;2270261;61;20434;-61
2021/10/23 08:20:12;0.00;0.00;0.62;0.00;0.00;0.62;2.90;1.60;;;20.90;27.50;;;;;;2270375;61;20384;-61
2021/10/23 08:22:56;0.00;0.00;0.62;0.00;0.00;0.62;6.17;1.53;;;20.90;27.60;;;;;;2269723;61;20356;-59
2021/10/23 08:25:42;0.00;0.00;0.62;0.00;0.00;0.62;7.07;1.50;;;21.00;27.60;;;;;;2270475;61;20720;-62
2021/10/23 08:28:26;0.00;0.00;0.62;0.00;0.00;0.62;3.73;1.20;;;21.00;27.60;;;;;;2269632;61;20566;-59
2021/10/23 08:31:12;0.00;0.00;0.62;0.00;0.00;0.62;2.47;1.37;;;21.00;27.60;;;;;;2269994;61;20426;-59
2021/10/23 08:33:57;0.00;0.00;0.62;0.00;0.00;0.62;3.57;1.17;;;21.10;27.60;;;;;;2270429;61;20364;-61
2021/10/23 08:36:42;0.00;0.00;0.62;0.00;0.00;0.62;3.67;1.43;;;21.10;27.60;;;;;;2269770;61;20360;-60
2021/10/23 08:39:26;0.00;0.00;0.62;0.00;0.00;0.62;2.77;1.10;;;21.10;27.60;;;;;;2270104;61;20380;-61
2021/10/23 08:42:12;0.00;0.00;0.62;0.00;0.00;0.62;3.20;1.60;;;21.10;27.60;;;;;;2270447;61;20399;-60
2021/10/23 08:45:00;0.00;0.00;0.62;0.00;0.00;0.62;2.40;1.23;;;21.20;27.60;;;;;;2269734;61;20352;-60
2021/10/23 08:47:47;0.00;0.00;0.62;0.00;0.00;0.62;2.60;1.50;;;21.20;27.60;;;;;;2270305;61;20819;-61
2021/10/23 08:50:31;0.00;0.00;0.62;0.00;0.00;0.62;2.27;1.17;;;21.20;27.50;;;;;;2269731;61;20482;-61
2021/10/23 08:53:16;0.00;0.00;0.62;0.00;0.00;0.62;2.47;1.20;;;21.30;27.50;;;;;;2269925;61;20462;-61
2021/10/23 08:56:01;0.00;0.00;0.62;0.00;0.00;0.62;4.53;1.87;;;21.30;27.50;;;;;;2270356;61;20777;-61
2021/10/23 08:58:45;0.00;0.00;0.62;0.00;0.00;0.62;3.57;1.50;;;21.30;27.50;;;;;;2269589;61;20382;-61
2021/10/23 09:01:31;0.00;0.00;0.62;0.00;0.00;0.62;2.10;1.20;;;21.30;27.50;;;;;;2270071;61;20720;-61
2021/10/23 09:04:17;0.00;0.00;0.62;0.00;0.00;0.62;1.73;1.40;;;21.30;27.50;;;;;;2270340;61;20357;-59
2021/10/23 09:07:08;0.00;0.00;0.62;0.00;0.00;0.62;1.80;0.90;;;21.40;27.60;;;;;;2269615;61;20434;-59
2021/10/23 09:09:58;0.00;0.00;0.62;0.00;0.00;0.62;2.57;1.27;;;21.40;27.60;;;;;;2270226;61;20473;-60
2021/10/23 09:12:42;0.00;0.00;0.62;0.00;0.00;0.62;4.13;1.40;;;21.50;27.70;;;;;;2269670;61;20411;-60
2021/10/23 09:15:31;0.00;0.00;0.62;0.00;0.00;0.62;2.50;1.03;;;21.50;27.70;;;;;;2269992;61;20391;-62
2021/10/23 09:18:15;0.00;0.00;0.62;0.00;0.00;0.62;2.00;1.00;;;21.50;27.70;;;;;;2270258;61;20353;-60
2021/10/23 09:21:15;0.00;0.00;0.62;0.00;0.00;0.62;1.83;1.07;;;21.50;27.70;;;;;;2269563;61;20745;-60
2021/10/23 09:24:19;0.00;0.00;0.62;0.00;0.00;0.62;2.40;1.30;;;21.60;27.70;;;;;;2270309;61;20372;-60
2021/10/23 09:27:15;0.00;0.00;0.62;0.00;0.00;0.62;3.20;1.00;;;21.60;27.70;;;;;;2270063;61;20364;-61
2021/10/23 09:29:59;0.00;0.00;0.62;0.00;0.00;0.62;2.40;1.00;;;21.70;27.80;;;;;;2269864;61;20375;-61
2021/10/23 09:32:55;0.00;0.00;0.62;0.00;0.00;0.62;2.27;1.30;;;21.70;27.80;;;;;;2270273;61;20384;-61
2021/10/23 09:35:42;0.00;0.00;0.62;0.00;0.00;0.62;2.60;1.23;;;21.70;27.80;;;;;;2269510;61;20534;-59
2021/10/23 09:38:31;0.00;0.00;0.62;0.00;0.00;0.62;1.90;1.00;;;21.80;27.90;;;;;;2269894;61;20352;-59
2021/10/23 09:41:18;0.00;0.00;0.62;0.00;0.00;0.62;1.50;0.90;;;21.80;27.90;;;;;;2270270;61;20434;-59
2021/10/23 09:44:13;0.00;0.00;0.62;0.00;0.00;0.62;2.13;1.03;;;21.80;27.90;;;;;;2269527;61;20364;-61
2021/10/23 09:46:58;0.00;0.00;0.62;0.00;0.00;0.62;1.70;0.90;;;21.90;27.90;;;;;;2270185;61;20379;-59
2021/10/23 09:49:42;0.00;0.00;0.62;0.00;0.00;0.62;2.00;1.00;;;21.90;27.90;;;;;;2269448;61;20380;-61
2021/10/23 09:52:27;0.00;0.00;0.62;0.00;0.00;0.62;2.23;1.00;;;22.00;28.00;;;;;;2269874;61;20392;-58
2021/10/23 09:55:13;0.00;0.00;0.62;0.00;0.00;0.62;2.27;0.90;;;22.00;28.00;;;;;;2270200;61;20740;-61
2021/10/23 09:58:15;0.00;0.00;0.62;0.00;0.00;0.62;1.87;1.00;;;22.10;28.10;;;;;;2269399;61;20360;-59
2021/10/23 10:01:01;0.00;0.00;0.62;0.00;0.00;0.62;1.80;0.90;;;22.10;28.10;;;;;;2270216;61;20351;-60
2021/10/23 10:03:48;0.00;0.00;0.62;0.00;0.00;0.62;2.10;1.00;;;22.10;28.10;;;;;;2270222;61;20356;-61
2021/10/23 10:06:34;0.00;0.00;0.62;0.00;0.00;0.62;2.10;1.00;;;22.20;28.20;;;;;;2269393;61;20360;-59
2021/10/23 10:09:20;0.00;0.00;0.62;0.00;0.00;0.62;2.20;0.90;;;22.20;28.10;;;;;;2270068;61;20380;-59
2021/10/23 10:12:07;0.00;0.00;0.62;0.00;0.00;0.62;2.13;1.07;;;22.30;28.20;;;;;;2269391;61;20646;-61
2021/10/23 10:14:52;0.00;0.00;0.62;0.00;0.00;0.62;2.10;1.30;;;22.30;28.20;;;;;;2269751;61;20426;-60
2021/10/23 10:17:39;0.00;0.00;0.62;0.00;0.00;0.62;1.63;1.00;;;22.40;28.30;;;;;;2270017;61;20566;-61
2021/10/23 10:20:24;0.00;0.00;0.62;0.00;0.00;0.62;1.80;0.97;;;22.40;28.30;;;;;;2269627;61;20407;-60
2021/10/23 10:23:10;0.00;0.00;0.62;0.00;0.00;0.62;2.23;1.27;;;22.50;28.30;;;;;;2270187;61;20388;-61
2021/10/23 10:26:30;0.00;0.00;0.62;0.00;0.00;0.62;2.00;1.00;;;22.50;28.30;;;;;;2270085;61;20356;-61
2021/10/23 10:32:21;0.00;0.00;0.62;0.00;0.00;0.62;1.40;0.80;;;22.60;28.40;;;;;;2269850;61;20475;-61
2021/10/23 10:38:11;0.00;0.00;0.62;0.00;0.00;0.62;1.50;1.00;;;22.70;28.40;;;;;;2269773;61;20385;-60
2021/10/23 10:44:18;0.00;0.00;0.62;0.00;0.00;0.62;1.30;0.90;;;22.80;28.30;;;;;;2269641;61;20356;-61
2021/10/23 10:47:11;0.00;0.00;0.62;0.00;0.00;0.62;2.30;1.17;;;22.90;28.40;;;;;;2270037;61;20357;-61
2021/10/23 10:49:56;0.00;0.00;0.62;0.00;0.00;0.62;2.67;1.00;;;22.90;28.40;;;;;;2269566;61;20372;-60
2021/10/23 10:52:54;0.00;0.00;0.62;0.00;0.00;0.62;1.30;0.70;;;23.00;28.40;;;;;;2269891;61;20385;-61
2021/10/23 10:55:41;0.00;0.00;0.62;0.00;0.00;0.62;2.07;1.17;;;23.00;28.40;;;;;;2269816;61;20580;-61
2021/10/23 10:58:40;0.00;0.00;0.62;0.00;0.00;0.62;2.90;1.20;;;23.10;28.40;;;;;;2269270;61;20421;-61
2021/10/23 11:01:27;0.00;0.00;0.62;0.00;0.00;0.62;1.40;0.80;;;23.10;28.30;;;;;;2269664;61;20352;-60
2021/10/23 11:04:12;0.00;0.00;0.62;0.00;0.00;0.62;1.40;0.90;;;23.20;28.40;;;;;;2269309;61;20360;-60